This is the latest recevied weather packets stored in our database for station/object ka8upw-1. If no packets are shown the sender has not sent any weather packets the latest 10 day(s).
| Time | Temp. | Humidity | Pressure | Rain* | Wind** | Luminosity | Snow |
|---|---|---|---|---|---|---|---|
| 1778020023 | 13.89° C | 94% | 1005.9 hPa | 3.05 mm | - | - | - |
| 1778018944 | 13.89° C | 93% | 1005.9 hPa | 3.05 mm | - | - | - |
| 1778014443 | 14.44° C | 92% | 1005.4 hPa | 0.76 mm | - | - | - |
| 1778011745 | 14.44° C | 91% | 1005.9 hPa | 0.51 mm | - | - | - |
| 1778010304 | 15° C | 89% | 1006.1 hPa | 0.51 mm | - | - | - |
| 1778007245 | 15.56° C | 86% | 1006.2 hPa | 0 mm | - | - | - |
| 1778005083 | 16.67° C | 81% | 1006.2 hPa | 0 mm | - | - | - |
| 1777998424 | 18.33° C | 72% | 1006.3 hPa | 0 mm | - | - | - |
| 1777995363 | 18.33° C | 67% | 1006.2 hPa | 0 mm | - | - | - |
| 1777991763 | 18.33° C | 69% | 1004.9 hPa | 0 mm | - | - | - |
| 1777988703 | 17.22° C | 75% | 1005 hPa | 0 mm | - | - | - |
| 1777987084 | 16.11° C | 77% | 1005.1 hPa | 0 mm | - | - | - |
| 1777985103 | 15.56° C | 80% | 1004.7 hPa | 0 mm | - | - | - |
| 1777979883 | 14.44° C | 82% | 1002.7 hPa | 0 mm | - | - | - |
| 1777978808 | 14.44° C | 82% | 1002.8 hPa | 0.51 mm | - | - | - |
| 1777977364 | 13.89° C | 84% | 1003.4 hPa | 0.51 mm | - | - | - |
| 1777971604 | 16.67° C | 72% | 1003.5 hPa | 0 mm | - | - | - |
| 1777970703 | 17.22° C | 71% | 1003.2 hPa | 0 mm | - | - | - |
| 1777969083 | 17.22° C | 70% | 1002.7 hPa | 0 mm | - | - | - |
| 1777966563 | 18.33° C | 67% | 1002.3 hPa | 0.25 mm | - | - | - |
| 1777963503 | 19.44° C | 62% | 1001.9 hPa | 0 mm | - | - | - |
| 1777963101 | 19.44° C | 61% | 1001.8 hPa | 0 mm | - | - | - |
| 1777955763 | 18.89° C | 66% | 1002.7 hPa | 0 mm | - | - | - |
| 1777952705 | 18.89° C | 66% | 1002.8 hPa | 0 mm | - | - | - |
| 1777951083 | 18.33° C | 66% | 1002.9 hPa | 0 mm | - | - | - |
* Rain latest hour (hover to see other rain measurements)
** Current wind speed in m/s (hover to see current wind gust speed)